sensor_id;sensor_type;location;lat;lon;timestamp;P1;durP1;ratioP1;P2;durP2;ratioP2
71620;SDS011;59471;42.254;23.102;2023-11-18T00:00:31;4.45;;;1.20;;
71620;SDS011;59471;42.254;23.102;2023-11-18T00:02:58;3.20;;;1.07;;
71620;SDS011;59471;42.254;23.102;2023-11-18T00:05:23;5.80;;;3.50;;
71620;SDS011;59471;42.254;23.102;2023-11-18T00:07:49;2.47;;;1.20;;
71620;SDS011;59471;42.254;23.102;2023-11-18T00:10:15;3.10;;;1.48;;
71620;SDS011;59471;42.254;23.102;2023-11-18T00:12:42;2.70;;;1.20;;
71620;SDS011;59471;42.254;23.102;2023-11-18T00:15:10;10.47;;;6.77;;
71620;SDS011;59471;42.254;23.102;2023-11-18T00:17:39;3.80;;;2.05;;
71620;SDS011;59471;42.254;23.102;2023-11-18T00:20:05;9.95;;;5.50;;
71620;SDS011;59471;42.254;23.102;2023-11-18T00:22:35;7.13;;;3.65;;
71620;SDS011;59471;42.254;23.102;2023-11-18T00:25:02;3.10;;;1.90;;
71620;SDS011;59471;42.254;23.102;2023-11-18T00:27:33;4.20;;;2.42;;
71620;SDS011;59471;42.254;23.102;2023-11-18T00:30:01;5.00;;;1.80;;
71620;SDS011;59471;42.254;23.102;2023-11-18T00:32:33;4.95;;;2.80;;
71620;SDS011;59471;42.254;23.102;2023-11-18T00:35:00;3.72;;;1.83;;
71620;SDS011;59471;42.254;23.102;2023-11-18T00:37:26;5.22;;;3.55;;
71620;SDS011;59471;42.254;23.102;2023-11-18T00:39:52;4.73;;;2.30;;
71620;SDS011;59471;42.254;23.102;2023-11-18T00:42:18;4.20;;;2.20;;
71620;SDS011;59471;42.254;23.102;2023-11-18T00:44:44;3.40;;;2.13;;
71620;SDS011;59471;42.254;23.102;2023-11-18T00:47:09;3.38;;;1.92;;
71620;SDS011;59471;42.254;23.102;2023-11-18T00:49:35;2.43;;;1.20;;
71620;SDS011;59471;42.254;23.102;2023-11-18T00:52:01;2.17;;;0.90;;
71620;SDS011;59471;42.254;23.102;2023-11-18T00:54:26;2.17;;;1.00;;
71620;SDS011;59471;42.254;23.102;2023-11-18T00:56:52;3.15;;;1.80;;
71620;SDS011;59471;42.254;23.102;2023-11-18T00:59:18;4.23;;;0.87;;
71620;SDS011;59471;42.254;23.102;2023-11-18T01:01:43;2.00;;;0.90;;
71620;SDS011;59471;42.254;23.102;2023-11-18T01:04:09;1.98;;;0.90;;
71620;SDS011;59471;42.254;23.102;2023-11-18T01:06:34;2.57;;;1.17;;
71620;SDS011;59471;42.254;23.102;2023-11-18T01:09:00;2.67;;;1.10;;
71620;SDS011;59471;42.254;23.102;2023-11-18T01:11:26;3.63;;;1.20;;
71620;SDS011;59471;42.254;23.102;2023-11-18T01:13:51;2.40;;;1.20;;
71620;SDS011;59471;42.254;23.102;2023-11-18T01:16:19;1.80;;;0.70;;
71620;SDS011;59471;42.254;23.102;2023-11-18T01:18:45;3.30;;;1.25;;
71620;SDS011;59471;42.254;23.102;2023-11-18T01:21:12;2.20;;;1.00;;
71620;SDS011;59471;42.254;23.102;2023-11-18T01:23:38;2.00;;;0.90;;
71620;SDS011;59471;42.254;23.102;2023-11-18T01:26:07;3.67;;;1.25;;
71620;SDS011;59471;42.254;23.102;2023-11-18T01:28:36;2.20;;;0.90;;
71620;SDS011;59471;42.254;23.102;2023-11-18T01:31:04;2.53;;;0.88;;
71620;SDS011;59471;42.254;23.102;2023-11-18T01:33:35;2.50;;;1.13;;
71620;SDS011;59471;42.254;23.102;2023-11-18T01:36:02;2.30;;;1.03;;
71620;SDS011;59471;42.254;23.102;2023-11-18T01:38:29;1.90;;;0.90;;
71620;SDS011;59471;42.254;23.102;2023-11-18T01:40:55;1.90;;;0.80;;
71620;SDS011;59471;42.254;23.102;2023-11-18T01:43:21;2.40;;;1.00;;
71620;SDS011;59471;42.254;23.102;2023-11-18T01:45:47;2.87;;;1.20;;
71620;SDS011;59471;42.254;23.102;2023-11-18T01:48:14;2.63;;;1.13;;
71620;SDS011;59471;42.254;23.102;2023-11-18T01:50:43;4.43;;;1.57;;
71620;SDS011;59471;42.254;23.102;2023-11-18T01:53:10;3.13;;;1.17;;
71620;SDS011;59471;42.254;23.102;2023-11-18T01:55:39;3.50;;;1.45;;
71620;SDS011;59471;42.254;23.102;2023-11-18T01:58:05;3.30;;;1.40;;
71620;SDS011;59471;42.254;23.102;2023-11-18T02:00:36;2.27;;;1.00;;
71620;SDS011;59471;42.254;23.102;2023-11-18T02:03:06;4.97;;;1.60;;
71620;SDS011;59471;42.254;23.102;2023-11-18T02:05:32;2.83;;;1.30;;
71620;SDS011;59471;42.254;23.102;2023-11-18T02:07:58;2.17;;;0.80;;
71620;SDS011;59471;42.254;23.102;2023-11-18T02:10:30;2.78;;;1.15;;
71620;SDS011;59471;42.254;23.102;2023-11-18T02:13:04;3.88;;;1.42;;
71620;SDS011;59471;42.254;23.102;2023-11-18T02:15:38;2.70;;;0.97;;
71620;SDS011;59471;42.254;23.102;2023-11-18T02:18:05;2.67;;;1.10;;
71620;SDS011;59471;42.254;23.102;2023-11-18T02:20:36;3.15;;;1.38;;
71620;SDS011;59471;42.254;23.102;2023-11-18T02:23:04;4.67;;;1.40;;
71620;SDS011;59471;42.254;23.102;2023-11-18T02:25:33;2.70;;;1.30;;
71620;SDS011;59471;42.254;23.102;2023-11-18T02:27:59;2.53;;;1.10;;
71620;SDS011;59471;42.254;23.102;2023-11-18T02:30:25;2.57;;;1.00;;
71620;SDS011;59471;42.254;23.102;2023-11-18T02:35:45;2.75;;;1.10;;
71620;SDS011;59471;42.254;23.102;2023-11-18T02:38:18;2.10;;;1.03;;
71620;SDS011;59471;42.254;23.102;2023-11-18T02:40:48;2.70;;;0.98;;
71620;SDS011;59471;42.254;23.102;2023-11-18T02:43:18;2.83;;;1.25;;
71620;SDS011;59471;42.254;23.102;2023-11-18T02:45:49;3.95;;;1.50;;
71620;SDS011;59471;42.254;23.102;2023-11-18T02:48:19;4.63;;;1.60;;
71620;SDS011;59471;42.254;23.102;2023-11-18T02:50:45;3.85;;;1.83;;
71620;SDS011;59471;42.254;23.102;2023-11-18T02:53:11;2.57;;;1.40;;
71620;SDS011;59471;42.254;23.102;2023-11-18T02:55:37;2.30;;;1.00;;
71620;SDS011;59471;42.254;23.102;2023-11-18T02:58:02;2.50;;;1.20;;
71620;SDS011;59471;42.254;23.102;2023-11-18T03:00:28;3.40;;;1.45;;
71620;SDS011;59471;42.254;23.102;2023-11-18T03:02:54;3.57;;;1.40;;
71620;SDS011;59471;42.254;23.102;2023-11-18T03:05:20;2.70;;;1.30;;
71620;SDS011;59471;42.254;23.102;2023-11-18T03:07:46;2.97;;;1.43;;
71620;SDS011;59471;42.254;23.102;2023-11-18T03:10:18;2.63;;;1.00;;
71620;SDS011;59471;42.254;23.102;2023-11-18T03:12:48;2.10;;;1.10;;
71620;SDS011;59471;42.254;23.102;2023-11-18T03:15:18;2.63;;;1.48;;
71620;SDS011;59471;42.254;23.102;2023-11-18T03:17:45;2.40;;;1.23;;
71620;SDS011;59471;42.254;23.102;2023-11-18T03:20:13;3.60;;;1.40;;
71620;SDS011;59471;42.254;23.102;2023-11-18T03:22:50;2.10;;;1.00;;
71620;SDS011;59471;42.254;23.102;2023-11-18T03:25:17;2.60;;;1.20;;
71620;SDS011;59471;42.254;23.102;2023-11-18T03:27:44;2.35;;;1.30;;
71620;SDS011;59471;42.254;23.102;2023-11-18T03:30:10;2.73;;;1.20;;
71620;SDS011;59471;42.254;23.102;2023-11-18T03:32:37;2.38;;;1.20;;
71620;SDS011;59471;42.254;23.102;2023-11-18T03:35:05;2.92;;;1.48;;
71620;SDS011;59471;42.254;23.102;2023-11-18T03:37:43;2.58;;;1.38;;
71620;SDS011;59471;42.254;23.102;2023-11-18T03:40:09;3.10;;;1.40;;
71620;SDS011;59471;42.254;23.102;2023-11-18T03:42:37;3.15;;;1.50;;
71620;SDS011;59471;42.254;23.102;2023-11-18T03:45:05;2.97;;;1.70;;
71620;SDS011;59471;42.254;23.102;2023-11-18T03:47:31;2.70;;;1.40;;
71620;SDS011;59471;42.254;23.102;2023-11-18T03:49:58;2.38;;;1.38;;
71620;SDS011;59471;42.254;23.102;2023-11-18T03:52:24;2.50;;;1.33;;
71620;SDS011;59471;42.254;23.102;2023-11-18T03:54:50;2.70;;;1.50;;
71620;SDS011;59471;42.254;23.102;2023-11-18T03:57:16;2.47;;;1.33;;
71620;SDS011;59471;42.254;23.102;2023-11-18T03:59:41;3.27;;;1.97;;
71620;SDS011;59471;42.254;23.102;2023-11-18T04:02:07;3.75;;;1.95;;
71620;SDS011;59471;42.254;23.102;2023-11-18T04:04:36;3.37;;;1.70;;
71620;SDS011;59471;42.254;23.102;2023-11-18T04:07:04;3.45;;;2.10;;
71620;SDS011;59471;42.254;23.102;2023-11-18T04:09:31;2.70;;;1.77;;
71620;SDS011;59471;42.254;23.102;2023-11-18T04:11:57;3.30;;;2.20;;
71620;SDS011;59471;42.254;23.102;2023-11-18T04:14:23;3.08;;;1.73;;
71620;SDS011;59471;42.254;23.102;2023-11-18T04:16:50;3.55;;;2.05;;
71620;SDS011;59471;42.254;23.102;2023-11-18T04:19:16;2.80;;;1.40;;
71620;SDS011;59471;42.254;23.102;2023-11-18T04:21:42;3.58;;;2.00;;
71620;SDS011;59471;42.254;23.102;2023-11-18T04:24:12;2.72;;;1.50;;
71620;SDS011;59471;42.254;23.102;2023-11-18T04:26:38;3.07;;;1.70;;
71620;SDS011;59471;42.254;23.102;2023-11-18T04:29:03;2.63;;;1.63;;
71620;SDS011;59471;42.254;23.102;2023-11-18T04:31:30;3.53;;;1.10;;
71620;SDS011;59471;42.254;23.102;2023-11-18T04:33:56;2.95;;;1.45;;
71620;SDS011;59471;42.254;23.102;2023-11-18T04:36:22;2.60;;;1.30;;
71620;SDS011;59471;42.254;23.102;2023-11-18T04:38:47;2.85;;;1.40;;
71620;SDS011;59471;42.254;23.102;2023-11-18T04:41:13;3.80;;;1.75;;
71620;SDS011;59471;42.254;23.102;2023-11-18T04:43:40;2.50;;;1.20;;
71620;SDS011;59471;42.254;23.102;2023-11-18T04:46:06;3.92;;;2.10;;
71620;SDS011;59471;42.254;23.102;2023-11-18T04:48:32;4.15;;;1.75;;
71620;SDS011;59471;42.254;23.102;2023-11-18T04:50:59;3.33;;;1.40;;
71620;SDS011;59471;42.254;23.102;2023-11-18T04:53:26;5.10;;;2.05;;
71620;SDS011;59471;42.254;23.102;2023-11-18T04:55:51;3.38;;;1.60;;
71620;SDS011;59471;42.254;23.102;2023-11-18T04:58:18;2.60;;;1.50;;
71620;SDS011;59471;42.254;23.102;2023-11-18T05:00:44;2.78;;;1.30;;
71620;SDS011;59471;42.254;23.102;2023-11-18T05:03:09;3.08;;;1.50;;
71620;SDS011;59471;42.254;23.102;2023-11-18T05:05:38;3.30;;;1.70;;
71620;SDS011;59471;42.254;23.102;2023-11-18T05:08:05;2.88;;;1.50;;
71620;SDS011;59471;42.254;23.102;2023-11-18T05:10:33;3.63;;;1.70;;
71620;SDS011;59471;42.254;23.102;2023-11-18T05:13:00;4.40;;;2.63;;
71620;SDS011;59471;42.254;23.102;2023-11-18T05:15:27;3.78;;;1.90;;
71620;SDS011;59471;42.254;23.102;2023-11-18T05:17:54;51.20;;;27.33;;
71620;SDS011;59471;42.254;23.102;2023-11-18T05:20:20;141.48;;;69.97;;
71620;SDS011;59471;42.254;23.102;2023-11-18T05:22:46;4.40;;;2.53;;
71620;SDS011;59471;42.254;23.102;2023-11-18T05:25:13;5.43;;;3.00;;
71620;SDS011;59471;42.254;23.102;2023-11-18T05:27:38;5.75;;;2.05;;
71620;SDS011;59471;42.254;23.102;2023-11-18T05:30:08;9.48;;;4.15;;
71620;SDS011;59471;42.254;23.102;2023-11-18T05:32:34;14.37;;;6.30;;
71620;SDS011;59471;42.254;23.102;2023-11-18T05:35:00;7.15;;;3.72;;
71620;SDS011;59471;42.254;23.102;2023-11-18T05:37:26;7.80;;;3.50;;
71620;SDS011;59471;42.254;23.102;2023-11-18T05:39:54;10.48;;;4.93;;
71620;SDS011;59471;42.254;23.102;2023-11-18T05:42:27;10.85;;;5.28;;
71620;SDS011;59471;42.254;23.102;2023-11-18T05:44:53;12.50;;;5.63;;
71620;SDS011;59471;42.254;23.102;2023-11-18T05:47:25;18.50;;;6.95;;
71620;SDS011;59471;42.254;23.102;2023-11-18T05:49:51;57.97;;;15.00;;
71620;SDS011;59471;42.254;23.102;2023-11-18T05:52:18;130.80;;;73.63;;
71620;SDS011;59471;42.254;23.102;2023-11-18T05:54:45;95.37;;;32.03;;
71620;SDS011;59471;42.254;23.102;2023-11-18T05:57:17;12.13;;;5.45;;
71620;SDS011;59471;42.254;23.102;2023-11-18T05:59:43;35.35;;;8.50;;
71620;SDS011;59471;42.254;23.102;2023-11-18T06:02:09;22.10;;;6.07;;
71620;SDS011;59471;42.254;23.102;2023-11-18T06:04:42;31.73;;;9.85;;
71620;SDS011;59471;42.254;23.102;2023-11-18T06:07:09;9.35;;;4.00;;
71620;SDS011;59471;42.254;23.102;2023-11-18T06:09:43;44.07;;;16.13;;
71620;SDS011;59471;42.254;23.102;2023-11-18T06:12:10;124.80;;;30.00;;
71620;SDS011;59471;42.254;23.102;2023-11-18T06:14:37;85.57;;;20.15;;
71620;SDS011;59471;42.254;23.102;2023-11-18T06:17:07;94.87;;;22.93;;
71620;SDS011;59471;42.254;23.102;2023-11-18T06:19:34;117.78;;;28.92;;
71620;SDS011;59471;42.254;23.102;2023-11-18T06:22:00;9.98;;;5.18;;
71620;SDS011;59471;42.254;23.102;2023-11-18T06:24:26;53.43;;;11.47;;
71620;SDS011;59471;42.254;23.102;2023-11-18T06:26:53;52.60;;;12.95;;
71620;SDS011;59471;42.254;23.102;2023-11-18T06:29:22;70.10;;;15.90;;
71620;SDS011;59471;42.254;23.102;2023-11-18T06:31:49;11.90;;;5.37;;
71620;SDS011;59471;42.254;23.102;2023-11-18T06:34:15;153.55;;;36.03;;
71620;SDS011;59471;42.254;23.102;2023-11-18T06:36:40;14.20;;;5.80;;
71620;SDS011;59471;42.254;23.102;2023-11-18T06:39:08;86.63;;;22.05;;
71620;SDS011;59471;42.254;23.102;2023-11-18T06:41:38;110.72;;;25.83;;
71620;SDS011;59471;42.254;23.102;2023-11-18T06:44:14;275.80;;;67.47;;
71620;SDS011;59471;42.254;23.102;2023-11-18T06:46:43;673.35;;;192.07;;
71620;SDS011;59471;42.254;23.102;2023-11-18T06:49:09;441.58;;;102.30;;
71620;SDS011;59471;42.254;23.102;2023-11-18T06:51:40;142.27;;;35.60;;
71620;SDS011;59471;42.254;23.102;2023-11-18T06:54:08;56.33;;;15.65;;
71620;SDS011;59471;42.254;23.102;2023-11-18T06:56:36;132.95;;;37.92;;
71620;SDS011;59471;42.254;23.102;2023-11-18T06:59:06;73.78;;;25.17;;
71620;SDS011;59471;42.254;23.102;2023-11-18T07:01:33;13.07;;;5.53;;
71620;SDS011;59471;42.254;23.102;2023-11-18T07:04:02;37.08;;;13.43;;
71620;SDS011;59471;42.254;23.102;2023-11-18T07:06:28;6.85;;;3.53;;
71620;SDS011;59471;42.254;23.102;2023-11-18T07:08:54;6.80;;;3.27;;
71620;SDS011;59471;42.254;23.102;2023-11-18T07:11:25;39.78;;;16.70;;
71620;SDS011;59471;42.254;23.102;2023-11-18T07:13:52;175.02;;;58.03;;
71620;SDS011;59471;42.254;23.102;2023-11-18T07:16:24;63.77;;;22.17;;
71620;SDS011;59471;42.254;23.102;2023-11-18T07:18:50;25.08;;;11.07;;
71620;SDS011;59471;42.254;23.102;2023-11-18T07:21:16;95.18;;;36.03;;
71620;SDS011;59471;42.254;23.102;2023-11-18T07:23:42;26.83;;;14.23;;
71620;SDS011;59471;42.254;23.102;2023-11-18T07:26:08;26.85;;;15.60;;
71620;SDS011;59471;42.254;23.102;2023-11-18T07:28:38;13.83;;;8.17;;
71620;SDS011;59471;42.254;23.102;2023-11-18T07:31:05;28.35;;;11.30;;
71620;SDS011;59471;42.254;23.102;2023-11-18T07:33:34;24.50;;;10.30;;
71620;SDS011;59471;42.254;23.102;2023-11-18T07:36:00;18.30;;;7.43;;
71620;SDS011;59471;42.254;23.102;2023-11-18T07:38:25;12.77;;;6.73;;
71620;SDS011;59471;42.254;23.102;2023-11-18T07:40:52;15.80;;;7.75;;
71620;SDS011;59471;42.254;23.102;2023-11-18T07:43:21;35.47;;;19.15;;
71620;SDS011;59471;42.254;23.102;2023-11-18T07:45:48;18.50;;;11.20;;
71620;SDS011;59471;42.254;23.102;2023-11-18T07:48:16;13.93;;;8.82;;
71620;SDS011;59471;42.254;23.102;2023-11-18T07:50:42;7.80;;;4.40;;
71620;SDS011;59471;42.254;23.102;2023-11-18T07:53:15;6.83;;;4.97;;
71620;SDS011;59471;42.254;23.102;2023-11-18T07:55:41;5.03;;;2.58;;
71620;SDS011;59471;42.254;23.102;2023-11-18T07:58:10;6.88;;;3.95;;
71620;SDS011;59471;42.254;23.102;2023-11-18T08:00:40;5.23;;;3.10;;
71620;SDS011;59471;42.254;23.102;2023-11-18T08:03:07;4.70;;;2.40;;
71620;SDS011;59471;42.254;23.102;2023-11-18T08:05:43;4.53;;;2.58;;
71620;SDS011;59471;42.254;23.102;2023-11-18T08:08:10;19.67;;;7.30;;
71620;SDS011;59471;42.254;23.102;2023-11-18T08:10:37;21.85;;;9.07;;
71620;SDS011;59471;42.254;23.102;2023-11-18T08:13:08;6.90;;;3.40;;
71620;SDS011;59471;42.254;23.102;2023-11-18T08:15:34;22.95;;;11.02;;
71620;SDS011;59471;42.254;23.102;2023-11-18T08:18:04;6.17;;;3.10;;
71620;SDS011;59471;42.254;23.102;2023-11-18T08:20:31;5.57;;;2.88;;
71620;SDS011;59471;42.254;23.102;2023-11-18T08:22:57;7.10;;;3.53;;
71620;SDS011;59471;42.254;23.102;2023-11-18T08:25:24;7.17;;;2.90;;
71620;SDS011;59471;42.254;23.102;2023-11-18T08:27:50;17.38;;;6.60;;
71620;SDS011;59471;42.254;23.102;2023-11-18T08:30:16;11.25;;;5.38;;
71620;SDS011;59471;42.254;23.102;2023-11-18T08:32:44;8.20;;;4.00;;
71620;SDS011;59471;42.254;23.102;2023-11-18T08:35:11;7.95;;;3.70;;
71620;SDS011;59471;42.254;23.102;2023-11-18T08:37:43;10.68;;;4.43;;
71620;SDS011;59471;42.254;23.102;2023-11-18T08:40:12;9.87;;;4.53;;
71620;SDS011;59471;42.254;23.102;2023-11-18T08:42:50;10.45;;;4.90;;
71620;SDS011;59471;42.254;23.102;2023-11-18T08:45:25;13.52;;;5.43;;
71620;SDS011;59471;42.254;23.102;2023-11-18T08:47:55;9.65;;;4.18;;
71620;SDS011;59471;42.254;23.102;2023-11-18T08:50:22;11.67;;;4.03;;
71620;SDS011;59471;42.254;23.102;2023-11-18T08:52:50;10.85;;;3.92;;
71620;SDS011;59471;42.254;23.102;2023-11-18T08:55:22;9.63;;;4.20;;
71620;SDS011;59471;42.254;23.102;2023-11-18T08:58:03;8.13;;;2.57;;
71620;SDS011;59471;42.254;23.102;2023-11-18T09:00:40;15.40;;;5.47;;
71620;SDS011;59471;42.254;23.102;2023-11-18T09:03:16;5.03;;;2.13;;
71620;SDS011;59471;42.254;23.102;2023-11-18T09:05:54;5.53;;;3.67;;
71620;SDS011;59471;42.254;23.102;2023-11-18T09:08:37;8.95;;;4.07;;
71620;SDS011;59471;42.254;23.102;2023-11-18T09:11:04;5.25;;;2.17;;
71620;SDS011;59471;42.254;23.102;2023-11-18T09:13:34;5.15;;;2.95;;
71620;SDS011;59471;42.254;23.102;2023-11-18T09:16:04;8.97;;;3.40;;
71620;SDS011;59471;42.254;23.102;2023-11-18T09:18:38;7.07;;;3.70;;
71620;SDS011;59471;42.254;23.102;2023-11-18T09:21:06;6.95;;;3.25;;
71620;SDS011;59471;42.254;23.102;2023-11-18T09:23:34;7.20;;;3.17;;
71620;SDS011;59471;42.254;23.102;2023-11-18T09:26:00;6.18;;;3.03;;
71620;SDS011;59471;42.254;23.102;2023-11-18T09:28:29;160.50;;;87.07;;
71620;SDS011;59471;42.254;23.102;2023-11-18T09:30:55;13.57;;;5.67;;
71620;SDS011;59471;42.254;23.102;2023-11-18T09:33:28;6.05;;;3.40;;
71620;SDS011;59471;42.254;23.102;2023-11-18T09:38:29;6.30;;;3.10;;
71620;SDS011;59471;42.254;23.102;2023-11-18T09:40:56;11.10;;;4.32;;
71620;SDS011;59471;42.254;23.102;2023-11-18T09:43:28;8.45;;;4.03;;
71620;SDS011;59471;42.254;23.102;2023-11-18T09:46:07;9.57;;;3.00;;
71620;SDS011;59471;42.254;23.102;2023-11-18T09:48:45;5.15;;;2.58;;
71620;SDS011;59471;42.254;23.102;2023-11-18T09:51:19;5.20;;;2.33;;
71620;SDS011;59471;42.254;23.102;2023-11-18T09:53:50;5.47;;;2.83;;
71620;SDS011;59471;42.254;23.102;2023-11-18T09:56:19;5.72;;;2.55;;
71620;SDS011;59471;42.254;23.102;2023-11-18T09:59:16;6.55;;;3.03;;
71620;SDS011;59471;42.254;23.102;2023-11-18T10:01:53;10.38;;;4.85;;
71620;SDS011;59471;42.254;23.102;2023-11-18T10:04:25;12.90;;;5.77;;
71620;SDS011;59471;42.254;23.102;2023-11-18T10:06:53;13.23;;;6.40;;
71620;SDS011;59471;42.254;23.102;2023-11-18T10:09:22;11.05;;;5.30;;
71620;SDS011;59471;42.254;23.102;2023-11-18T10:12:02;12.67;;;5.40;;
71620;SDS011;59471;42.254;23.102;2023-11-18T10:14:35;17.05;;;6.63;;
71620;SDS011;59471;42.254;23.102;2023-11-18T10:17:04;12.63;;;5.47;;
71620;SDS011;59471;42.254;23.102;2023-11-18T10:19:53;8.93;;;4.37;;
71620;SDS011;59471;42.254;23.102;2023-11-18T10:22:37;14.40;;;6.20;;
71620;SDS011;59471;42.254;23.102;2023-11-18T10:25:03;16.73;;;7.13;;
71620;SDS011;59471;42.254;23.102;2023-11-18T10:27:31;21.43;;;8.57;;
71620;SDS011;59471;42.254;23.102;2023-11-18T10:30:05;7.20;;;3.70;;
71620;SDS011;59471;42.254;23.102;2023-11-18T10:32:44;10.23;;;4.50;;
71620;SDS011;59471;42.254;23.102;2023-11-18T10:35:30;17.50;;;7.22;;
71620;SDS011;59471;42.254;23.102;2023-11-18T10:38:02;55.63;;;29.23;;
71620;SDS011;59471;42.254;23.102;2023-11-18T10:40:31;51.78;;;24.50;;
71620;SDS011;59471;42.254;23.102;2023-11-18T10:43:02;35.33;;;13.23;;
71620;SDS011;59471;42.254;23.102;2023-11-18T10:45:34;67.27;;;30.23;;
71620;SDS011;59471;42.254;23.102;2023-11-18T10:48:07;24.67;;;10.82;;
71620;SDS011;59471;42.254;23.102;2023-11-18T10:50:33;89.70;;;26.77;;
71620;SDS011;59471;42.254;23.102;2023-11-18T10:53:02;28.43;;;8.37;;
71620;SDS011;59471;42.254;23.102;2023-11-18T10:55:34;75.55;;;22.20;;
71620;SDS011;59471;42.254;23.102;2023-11-18T10:58:02;30.33;;;7.85;;
71620;SDS011;59471;42.254;23.102;2023-11-18T11:00:51;118.13;;;29.48;;
71620;SDS011;59471;42.254;23.102;2023-11-18T11:03:21;44.37;;;11.80;;
71620;SDS011;59471;42.254;23.102;2023-11-18T11:05:50;86.95;;;22.83;;
71620;SDS011;59471;42.254;23.102;2023-11-18T11:08:19;88.57;;;28.00;;
71620;SDS011;59471;42.254;23.102;2023-11-18T11:10:45;54.93;;;17.47;;
71620;SDS011;59471;42.254;23.102;2023-11-18T11:13:14;20.38;;;8.27;;
71620;SDS011;59471;42.254;23.102;2023-11-18T11:15:43;72.72;;;25.00;;
71620;SDS011;59471;42.254;23.102;2023-11-18T11:18:11;146.53;;;55.80;;
71620;SDS011;59471;42.254;23.102;2023-11-18T11:20:52;42.65;;;16.13;;
71620;SDS011;59471;42.254;23.102;2023-11-18T11:23:50;20.33;;;8.43;;
71620;SDS011;59471;42.254;23.102;2023-11-18T11:26:33;33.00;;;16.38;;
71620;SDS011;59471;42.254;23.102;2023-11-18T11:32:00;14.82;;;6.72;;
71620;SDS011;59471;42.254;23.102;2023-11-18T11:34:39;12.20;;;6.45;;
71620;SDS011;59471;42.254;23.102;2023-11-18T11:37:25;14.83;;;5.80;;
71620;SDS011;59471;42.254;23.102;2023-11-18T11:39:52;24.05;;;7.95;;
71620;SDS011;59471;42.254;23.102;2023-11-18T11:42:20;20.15;;;6.88;;
71620;SDS011;59471;42.254;23.102;2023-11-18T11:44:46;30.73;;;12.30;;
71620;SDS011;59471;42.254;23.102;2023-11-18T11:47:13;163.15;;;80.25;;
71620;SDS011;59471;42.254;23.102;2023-11-18T11:49:46;23.80;;;10.52;;
71620;SDS011;59471;42.254;23.102;2023-11-18T11:57:53;20.13;;;9.38;;
71620;SDS011;59471;42.254;23.102;2023-11-18T12:00:25;17.02;;;9.18;;
71620;SDS011;59471;42.254;23.102;2023-11-18T12:02:59;12.10;;;6.27;;
71620;SDS011;59471;42.254;23.102;2023-11-18T12:05:29;8.43;;;4.00;;
71620;SDS011;59471;42.254;23.102;2023-11-18T12:07:58;7.28;;;3.80;;
71620;SDS011;59471;42.254;23.102;2023-11-18T12:10:27;11.53;;;6.57;;
71620;SDS011;59471;42.254;23.102;2023-11-18T12:13:17;14.70;;;6.00;;
71620;SDS011;59471;42.254;23.102;2023-11-18T12:15:53;149.30;;;50.15;;
71620;SDS011;59471;42.254;23.102;2023-11-18T12:18:30;36.17;;;16.77;;
71620;SDS011;59471;42.254;23.102;2023-11-18T12:21:01;15.67;;;8.47;;
71620;SDS011;59471;42.254;23.102;2023-11-18T12:23:28;13.50;;;6.88;;
71620;SDS011;59471;42.254;23.102;2023-11-18T12:25:55;8.38;;;4.45;;
71620;SDS011;59471;42.254;23.102;2023-11-18T12:28:27;6.53;;;4.10;;
71620;SDS011;59471;42.254;23.102;2023-11-18T12:30:59;7.45;;;3.83;;
71620;SDS011;59471;42.254;23.102;2023-11-18T12:39:07;10.07;;;5.15;;
71620;SDS011;59471;42.254;23.102;2023-11-18T12:42:20;6.78;;;3.30;;
71620;SDS011;59471;42.254;23.102;2023-11-18T12:48:09;5.13;;;2.83;;
71620;SDS011;59471;42.254;23.102;2023-11-18T12:50:43;5.47;;;1.83;;
71620;SDS011;59471;42.254;23.102;2023-11-18T12:53:11;7.53;;;3.65;;
71620;SDS011;59471;42.254;23.102;2023-11-18T12:55:39;7.23;;;2.57;;
71620;SDS011;59471;42.254;23.102;2023-11-18T12:58:07;8.05;;;3.63;;
71620;SDS011;59471;42.254;23.102;2023-11-18T13:00:33;8.23;;;3.27;;
71620;SDS011;59471;42.254;23.102;2023-11-18T13:03:06;6.25;;;2.95;;
71620;SDS011;59471;42.254;23.102;2023-11-18T13:05:35;9.07;;;2.95;;
71620;SDS011;59471;42.254;23.102;2023-11-18T13:08:02;3.50;;;1.80;;
71620;SDS011;59471;42.254;23.102;2023-11-18T13:10:29;6.17;;;3.03;;
71620;SDS011;59471;42.254;23.102;2023-11-18T13:12:55;5.15;;;2.88;;
71620;SDS011;59471;42.254;23.102;2023-11-18T13:15:23;23.08;;;11.27;;
71620;SDS011;59471;42.254;23.102;2023-11-18T13:18:00;6.77;;;2.77;;
71620;SDS011;59471;42.254;23.102;2023-11-18T13:20:31;6.53;;;2.90;;
71620;SDS011;59471;42.254;23.102;2023-11-18T13:23:00;8.80;;;3.70;;
71620;SDS011;59471;42.254;23.102;2023-11-18T13:25:26;5.60;;;2.20;;
71620;SDS011;59471;42.254;23.102;2023-11-18T13:27:51;7.45;;;3.97;;
71620;SDS011;59471;42.254;23.102;2023-11-18T13:30:18;7.67;;;3.20;;
71620;SDS011;59471;42.254;23.102;2023-11-18T13:32:45;9.80;;;3.75;;
71620;SDS011;59471;42.254;23.102;2023-11-18T13:35:11;3.55;;;1.63;;
71620;SDS011;59471;42.254;23.102;2023-11-18T13:37:45;6.32;;;2.95;;
71620;SDS011;59471;42.254;23.102;2023-11-18T13:40:13;6.03;;;3.07;;
71620;SDS011;59471;42.254;23.102;2023-11-18T13:42:38;3.85;;;2.10;;
71620;SDS011;59471;42.254;23.102;2023-11-18T13:45:05;5.43;;;2.87;;
71620;SDS011;59471;42.254;23.102;2023-11-18T13:47:40;6.68;;;2.88;;
71620;SDS011;59471;42.254;23.102;2023-11-18T13:50:13;33.40;;;16.20;;
71620;SDS011;59471;42.254;23.102;2023-11-18T13:52:42;9.60;;;3.92;;
71620;SDS011;59471;42.254;23.102;2023-11-18T13:55:08;6.87;;;2.50;;
71620;SDS011;59471;42.254;23.102;2023-11-18T13:57:45;6.65;;;3.70;;
71620;SDS011;59471;42.254;23.102;2023-11-18T14:00:11;4.45;;;2.05;;
71620;SDS011;59471;42.254;23.102;2023-11-18T14:02:41;3.20;;;1.47;;
71620;SDS011;59471;42.254;23.102;2023-11-18T14:05:16;5.88;;;2.38;;
71620;SDS011;59471;42.254;23.102;2023-11-18T14:07:43;5.50;;;3.08;;
71620;SDS011;59471;42.254;23.102;2023-11-18T14:10:08;5.00;;;2.57;;
71620;SDS011;59471;42.254;23.102;2023-11-18T14:12:38;9.05;;;3.90;;
71620;SDS011;59471;42.254;23.102;2023-11-18T14:15:05;6.83;;;2.70;;
71620;SDS011;59471;42.254;23.102;2023-11-18T14:17:35;4.70;;;2.55;;
71620;SDS011;59471;42.254;23.102;2023-11-18T14:20:01;37.83;;;19.80;;
71620;SDS011;59471;42.254;23.102;2023-11-18T14:22:27;9.73;;;4.13;;
71620;SDS011;59471;42.254;23.102;2023-11-18T14:24:53;9.80;;;3.55;;
71620;SDS011;59471;42.254;23.102;2023-11-18T14:27:19;5.03;;;2.53;;
71620;SDS011;59471;42.254;23.102;2023-11-18T14:29:44;7.35;;;3.40;;
71620;SDS011;59471;42.254;23.102;2023-11-18T14:32:11;9.15;;;3.65;;
71620;SDS011;59471;42.254;23.102;2023-11-18T14:34:39;10.10;;;4.50;;
71620;SDS011;59471;42.254;23.102;2023-11-18T14:37:06;10.00;;;4.97;;
71620;SDS011;59471;42.254;23.102;2023-11-18T14:39:32;13.45;;;5.10;;
71620;SDS011;59471;42.254;23.102;2023-11-18T14:42:01;14.10;;;5.27;;
71620;SDS011;59471;42.254;23.102;2023-11-18T14:44:27;9.23;;;4.35;;
71620;SDS011;59471;42.254;23.102;2023-11-18T14:46:52;10.82;;;3.90;;
71620;SDS011;59471;42.254;23.102;2023-11-18T14:49:19;9.17;;;4.37;;
71620;SDS011;59471;42.254;23.102;2023-11-18T14:51:45;9.45;;;3.90;;
71620;SDS011;59471;42.254;23.102;2023-11-18T14:54:11;11.00;;;5.00;;
71620;SDS011;59471;42.254;23.102;2023-11-18T14:56:37;19.95;;;6.47;;
71620;SDS011;59471;42.254;23.102;2023-11-18T14:59:03;43.75;;;13.00;;